createdAt,value
2023-04-17T00:01:39.340Z,13.82
2023-04-17T00:04:07.164Z,13.43
2023-04-17T00:06:33.620Z,13.57
2023-04-17T00:09:00.102Z,13.10
2023-04-17T00:11:26.805Z,12.57
2023-04-17T00:13:53.106Z,13.63
2023-04-17T00:16:19.487Z,12.75
2023-04-17T00:18:45.894Z,13.63
2023-04-17T00:21:12.205Z,11.95
2023-04-17T00:23:38.615Z,12.13
2023-04-17T00:26:04.955Z,11.70
2023-04-17T00:28:31.286Z,12.55
2023-04-17T00:30:57.621Z,12.00
2023-04-17T00:33:24.018Z,12.35
2023-04-17T00:35:50.516Z,11.25
2023-04-17T00:38:17.439Z,13.07
2023-04-17T00:40:43.886Z,11.93
2023-04-17T00:43:10.529Z,11.55
2023-04-17T00:45:37.238Z,11.90
2023-04-17T00:48:03.635Z,11.43
2023-04-17T00:50:30.332Z,10.82
2023-04-17T00:52:57.238Z,11.13
2023-04-17T00:55:23.587Z,10.95
2023-04-17T00:57:49.990Z,11.23
2023-04-17T01:00:16.500Z,10.27
2023-04-17T01:02:43.261Z,10.32
2023-04-17T01:05:10.605Z,10.23
2023-04-17T01:07:38.463Z,10.23
2023-04-17T01:10:05.130Z,10.30
2023-04-17T01:12:32.114Z,10.45
2023-04-17T01:14:58.884Z,9.75
2023-04-17T01:17:25.284Z,9.95
2023-04-17T01:19:52.218Z,10.38
2023-04-17T01:22:18.596Z,10.02
2023-04-17T01:24:44.968Z,9.60
2023-04-17T01:27:11.431Z,9.40
2023-04-17T01:29:38.028Z,9.25
2023-04-17T01:32:04.638Z,9.60
2023-04-17T01:34:31.078Z,10.32
2023-04-17T01:36:57.434Z,9.30
2023-04-17T01:39:23.988Z,9.38
2023-04-17T01:41:50.375Z,8.88
2023-04-17T01:44:16.744Z,9.60
2023-04-17T01:46:43.380Z,8.65
2023-04-17T01:49:10.111Z,8.25
2023-04-17T01:51:36.778Z,8.07
2023-04-17T01:54:03.374Z,8.23
2023-04-17T01:56:29.762Z,8.88
2023-04-17T01:58:56.134Z,8.60
2023-04-17T02:01:22.695Z,8.40
2023-04-17T02:03:49.674Z,8.40
2023-04-17T02:06:16.160Z,8.35
2023-04-17T02:08:42.491Z,8.98
2023-04-17T02:11:09.068Z,8.00
2023-04-17T02:13:35.559Z,8.10
2023-04-17T02:16:02.398Z,8.00
2023-04-17T02:18:29.035Z,8.07
2023-04-17T02:20:55.428Z,7.80
2023-04-17T02:23:21.796Z,8.05
2023-04-17T02:25:48.394Z,7.90
2023-04-17T02:28:15.460Z,8.00
2023-04-17T02:30:41.916Z,8.30
2023-04-17T02:33:08.478Z,7.85
2023-04-17T02:35:34.977Z,7.82
2023-04-17T02:38:01.731Z,7.47
2023-04-17T02:40:28.169Z,8.18
2023-04-17T02:42:54.770Z,8.05
2023-04-17T02:45:21.193Z,6.85
2023-04-17T02:47:47.723Z,7.47
2023-04-17T02:50:14.536Z,6.47
2023-04-17T02:52:41.366Z,7.45
2023-04-17T02:55:07.688Z,7.63
2023-04-17T02:57:34.060Z,7.28
2023-04-17T03:00:00.426Z,6.97
2023-04-17T03:02:27.621Z,7.15
2023-04-17T03:04:54.080Z,7.25
2023-04-17T03:07:20.610Z,7.30
2023-04-17T03:09:47.651Z,7.00
2023-04-17T03:12:14.263Z,6.68
2023-04-17T03:14:40.633Z,6.53
2023-04-17T03:17:07.364Z,7.05
2023-04-17T03:19:34.412Z,7.03
2023-04-17T03:22:00.789Z,6.80
2023-04-17T03:24:27.964Z,6.93
2023-04-17T03:26:54.319Z,6.35
2023-04-17T03:29:20.625Z,7.10
2023-04-17T03:31:47.202Z,7.20
2023-04-17T03:34:13.730Z,7.15
2023-04-17T03:36:40.170Z,6.68
2023-04-17T03:39:06.580Z,7.03
2023-04-17T03:41:32.989Z,7.00
2023-04-17T03:43:59.293Z,6.40
2023-04-17T03:46:25.691Z,6.63
2023-04-17T03:48:52.047Z,6.75
2023-04-17T03:51:18.658Z,6.90
2023-04-17T03:53:45.039Z,6.13
2023-04-17T03:56:11.487Z,6.95
2023-04-17T03:58:37.882Z,6.53
2023-04-17T04:01:04.166Z,6.80
2023-04-17T04:03:30.745Z,6.60
2023-04-17T04:05:57.261Z,6.93
2023-04-17T04:08:23.581Z,6.20
2023-04-17T04:10:50.014Z,6.70
2023-04-17T04:13:16.327Z,6.55
2023-04-17T04:15:43.161Z,6.88
2023-04-17T04:18:09.788Z,5.95
2023-04-17T04:20:36.221Z,6.53
2023-04-17T04:23:02.908Z,5.78
2023-04-17T04:25:29.639Z,6.38
2023-04-17T04:27:56.023Z,6.28
2023-04-17T04:30:22.534Z,6.47
2023-04-17T04:32:48.848Z,6.10
2023-04-17T04:35:15.236Z,6.40
2023-04-17T04:37:41.894Z,5.63
2023-04-17T04:40:08.270Z,6.00
2023-04-17T04:42:35.182Z,7.45
2023-04-17T04:45:01.846Z,6.22
2023-04-17T04:47:28.306Z,5.75
2023-04-17T04:49:55.061Z,6.30
2023-04-17T04:52:21.445Z,6.40
2023-04-17T04:54:47.802Z,6.40
2023-04-17T04:57:14.105Z,6.03
2023-04-17T04:59:40.867Z,6.22
2023-04-17T05:02:08.074Z,7.13
2023-04-17T05:04:34.654Z,6.10
2023-04-17T05:07:01.124Z,6.80
2023-04-17T05:09:27.474Z,6.35
2023-04-17T05:11:53.925Z,6.47
2023-04-17T05:14:20.291Z,6.47
2023-04-17T05:16:46.709Z,6.50
2023-04-17T05:19:13.490Z,6.40
2023-04-17T05:21:40.278Z,6.15
2023-04-17T05:24:06.683Z,7.10
2023-04-17T05:26:33.621Z,6.60
2023-04-17T05:28:59.962Z,6.20
2023-04-17T05:31:26.403Z,6.63
2023-04-17T05:33:52.840Z,6.88
2023-04-17T05:36:19.356Z,6.53
2023-04-17T05:38:46.387Z,7.43
2023-04-17T05:41:12.907Z,6.47
2023-04-17T05:43:39.438Z,7.18
2023-04-17T05:46:05.921Z,6.70
2023-04-17T05:48:32.421Z,6.68
2023-04-17T05:50:58.766Z,6.40
2023-04-17T05:53:25.594Z,6.45
2023-04-17T05:55:52.021Z,6.60
2023-04-17T05:58:23.526Z,6.90
2023-04-17T06:00:50.737Z,6.32
2023-04-17T06:03:18.335Z,6.88
2023-04-17T06:05:45.358Z,6.28
2023-04-17T06:08:11.709Z,7.32
2023-04-17T06:10:38.081Z,7.25
2023-04-17T06:13:05.058Z,6.85
2023-04-17T06:15:31.399Z,7.18
2023-04-17T06:17:57.775Z,7.18
2023-04-17T06:20:24.239Z,7.57
2023-04-17T06:22:50.607Z,6.85
2023-04-17T06:25:17.686Z,7.55
2023-04-17T06:27:44.163Z,7.78
2023-04-17T06:30:10.719Z,7.55
2023-04-17T06:32:37.354Z,7.50
2023-04-17T06:35:04.293Z,7.50
2023-04-17T06:37:30.588Z,7.35
2023-04-17T06:39:56.996Z,7.50
2023-04-17T06:42:23.294Z,7.65
2023-04-17T06:44:49.816Z,7.60
2023-04-17T06:47:16.155Z,8.20
2023-04-17T06:49:43.045Z,7.60
2023-04-17T06:52:09.708Z,7.72
2023-04-17T06:54:36.032Z,7.43
2023-04-17T06:57:02.501Z,7.85
2023-04-17T06:59:28.963Z,8.10
2023-04-17T07:01:55.625Z,8.32
2023-04-17T07:04:22.127Z,7.88
2023-04-17T07:06:48.546Z,8.35
2023-04-17T07:09:15.279Z,8.73
2023-04-17T07:11:41.720Z,8.20
2023-04-17T07:14:09.098Z,8.32
2023-04-17T07:16:36.257Z,8.70
2023-04-17T07:19:03.133Z,8.68
2023-04-17T07:21:29.469Z,8.65
2023-04-17T07:23:56.062Z,9.20
2023-04-17T07:26:22.474Z,9.93
2023-04-17T07:28:48.960Z,9.77
2023-04-17T07:31:15.855Z,9.55
2023-04-17T07:33:42.237Z,9.63
2023-04-17T07:36:08.810Z,8.93
2023-04-17T07:38:35.121Z,8.43
2023-04-17T07:41:01.516Z,9.50
2023-04-17T07:43:28.023Z,8.50
2023-04-17T07:45:54.886Z,10.27
2023-04-17T07:48:21.186Z,9.35
2023-04-17T07:50:47.559Z,9.88
2023-04-17T07:53:14.575Z,8.73
2023-04-17T07:55:40.869Z,9.43
2023-04-17T07:58:07.200Z,10.13
2023-04-17T08:00:34.047Z,11.23
2023-04-17T08:03:01.223Z,12.02
2023-04-17T08:05:27.869Z,11.75
2023-04-17T08:07:55.188Z,12.70
2023-04-17T08:10:21.554Z,13.32
2023-04-17T08:12:48.458Z,13.93
2023-04-17T08:15:14.752Z,13.65
2023-04-17T08:17:41.424Z,14.13
2023-04-17T08:20:07.765Z,15.13
2023-04-17T08:22:34.766Z,14.55
2023-04-17T08:25:01.307Z,14.52
2023-04-17T08:27:28.146Z,13.85
2023-04-17T08:29:54.588Z,15.20
2023-04-17T08:32:21.040Z,14.95
2023-04-17T08:34:47.421Z,14.98
2023-04-17T08:37:14.467Z,13.98
2023-04-17T08:39:41.023Z,15.05
2023-04-17T08:42:08.008Z,15.15
2023-04-17T08:44:34.436Z,14.68
2023-04-17T08:47:01.119Z,13.60
2023-04-17T08:49:27.476Z,14.55
2023-04-17T08:51:53.887Z,14.07
2023-04-17T08:54:20.438Z,15.07
2023-04-17T08:56:46.790Z,14.82
2023-04-17T08:59:13.407Z,13.27
2023-04-17T09:01:39.931Z,15.55
2023-04-17T09:04:06.706Z,15.07
2023-04-17T09:06:33.436Z,15.50
2023-04-17T09:08:59.882Z,15.65
2023-04-17T09:11:26.295Z,14.70
2023-04-17T09:13:52.741Z,13.85
2023-04-17T09:16:19.193Z,13.90
2023-04-17T09:18:45.656Z,14.50
2023-04-17T09:21:12.076Z,16.15
2023-04-17T09:23:38.456Z,15.07
2023-04-17T09:26:05.206Z,14.55
2023-04-17T09:28:31.556Z,14.70
2023-04-17T09:30:57.984Z,14.98
2023-04-17T09:33:24.435Z,15.57
2023-04-17T09:35:51.146Z,14.73
2023-04-17T09:38:17.916Z,15.30
2023-04-17T09:40:44.280Z,14.48
2023-04-17T09:43:10.907Z,16.13
2023-04-17T09:45:37.366Z,16.38
2023-04-17T09:48:03.767Z,15.77
2023-04-17T09:50:30.268Z,14.48
2023-04-17T09:52:56.854Z,15.02
2023-04-17T09:55:23.336Z,14.32
2023-04-17T09:57:49.692Z,14.35
2023-04-17T10:00:16.517Z,14.60
2023-04-17T10:02:43.118Z,15.75
2023-04-17T10:05:09.711Z,14.55
2023-04-17T10:07:36.075Z,15.40
2023-04-17T10:10:02.409Z,15.52
2023-04-17T10:12:29.016Z,14.43
2023-04-17T10:14:55.935Z,16.02
2023-04-17T10:17:22.804Z,14.90
2023-04-17T10:19:49.276Z,15.13
2023-04-17T10:22:15.871Z,15.07
2023-04-17T10:24:42.324Z,15.52
2023-04-17T10:27:08.743Z,14.77
2023-04-17T10:29:35.125Z,15.48
2023-04-17T10:32:01.799Z,15.05
2023-04-17T10:34:28.238Z,15.23
2023-04-17T10:36:54.861Z,14.93
2023-04-17T10:39:21.206Z,15.43
2023-04-17T10:41:47.649Z,15.63
2023-04-17T10:44:14.112Z,14.13
2023-04-17T10:46:40.650Z,15.52
2023-04-17T10:49:06.990Z,15.07
2023-04-17T10:51:33.354Z,15.07
2023-04-17T10:53:59.657Z,15.85
2023-04-17T10:56:26.178Z,14.90
2023-04-17T10:58:52.683Z,14.95
2023-04-17T11:01:19.140Z,14.40
2023-04-17T11:03:46.351Z,16.30
2023-04-17T11:06:12.973Z,15.45
2023-04-17T11:08:39.496Z,14.57
2023-04-17T11:11:05.785Z,15.98
2023-04-17T11:13:32.281Z,14.80
2023-04-17T11:15:58.558Z,16.48
2023-04-17T11:18:25.375Z,15.70
2023-04-17T11:20:51.663Z,15.18
2023-04-17T11:23:18.010Z,15.40
2023-04-17T11:25:45.067Z,15.52
2023-04-17T11:28:12.408Z,14.60
2023-04-17T11:30:38.752Z,15.20
2023-04-17T11:33:05.279Z,15.98
2023-04-17T11:35:32.284Z,15.30
2023-04-17T11:37:58.611Z,14.55
2023-04-17T11:40:25.248Z,14.63
2023-04-17T11:42:51.531Z,15.55
2023-04-17T11:45:18.016Z,16.13
2023-04-17T11:47:44.488Z,14.70
2023-04-17T11:50:10.919Z,14.75
2023-04-17T11:52:37.297Z,15.00
2023-04-17T11:55:03.681Z,15.95
2023-04-17T11:57:30.453Z,15.40
2023-04-17T11:59:57.076Z,15.00
2023-04-17T12:02:23.619Z,15.60
2023-04-17T12:04:50.162Z,15.13
2023-04-17T12:07:17.696Z,16.35
2023-04-17T12:09:44.039Z,15.38
2023-04-17T12:12:10.540Z,15.52
2023-04-17T12:14:36.979Z,14.98
2023-04-17T12:17:03.300Z,14.25
2023-04-17T12:19:30.051Z,15.65
2023-04-17T12:21:56.666Z,15.75
2023-04-17T12:24:23.583Z,15.30
2023-04-17T12:26:50.368Z,15.40
2023-04-17T12:29:16.743Z,15.65
2023-04-17T12:31:43.381Z,15.68
2023-04-17T12:34:10.326Z,16.00
2023-04-17T12:36:36.890Z,15.45
2023-04-17T12:39:03.298Z,15.02
2023-04-17T12:41:29.664Z,15.60
2023-04-17T12:43:55.988Z,14.55
2023-04-17T12:46:22.764Z,15.20
2023-04-17T12:48:49.197Z,14.77
2023-04-17T12:51:15.555Z,14.77
2023-04-17T12:53:42.582Z,15.15
2023-04-17T12:56:09.140Z,15.38
2023-04-17T12:58:35.545Z,14.95
2023-04-17T13:01:01.992Z,15.30
2023-04-17T13:03:28.797Z,15.35
2023-04-17T13:05:55.277Z,15.90
2023-04-17T13:08:21.688Z,15.85
2023-04-17T13:10:48.518Z,15.23
2023-04-17T13:13:15.417Z,16.70
2023-04-17T13:15:41.814Z,15.88
2023-04-17T13:18:08.486Z,15.82
2023-04-17T13:20:35.718Z,15.15
2023-04-17T13:23:02.149Z,15.27
2023-04-17T13:25:28.983Z,15.43
2023-04-17T13:27:55.360Z,15.98
2023-04-17T13:30:21.766Z,14.77
2023-04-17T13:32:48.317Z,15.02
2023-04-17T13:35:15.096Z,15.38
2023-04-17T13:37:41.423Z,16.00
2023-04-17T13:40:08.119Z,16.15
2023-04-17T13:42:34.707Z,16.00
2023-04-17T13:45:01.108Z,16.02
2023-04-17T13:47:27.684Z,14.70
2023-04-17T13:49:54.184Z,15.18
2023-04-17T13:52:20.578Z,15.00
2023-04-17T13:54:47.233Z,14.68
2023-04-17T13:57:13.994Z,15.45
2023-04-17T13:59:40.382Z,16.30
2023-04-17T14:02:06.836Z,15.88
2023-04-17T14:04:33.422Z,14.80
2023-04-17T14:06:59.863Z,15.10
2023-04-17T14:09:26.208Z,14.40
2023-04-17T14:11:52.799Z,14.50
2023-04-17T14:14:19.175Z,14.90
2023-04-17T14:16:45.494Z,14.18
2023-04-17T14:19:14.797Z,14.63
2023-04-17T14:21:41.721Z,15.00
2023-04-17T14:24:08.176Z,14.80
2023-04-17T14:26:34.565Z,15.02
2023-04-17T14:29:01.051Z,14.15
2023-04-17T14:31:27.626Z,14.65
2023-04-17T14:33:54.012Z,15.93
2023-04-17T14:36:20.398Z,15.02
2023-04-17T14:38:47.117Z,15.27
2023-04-17T14:41:13.776Z,14.70
2023-04-17T14:43:40.115Z,14.93
2023-04-17T14:46:06.637Z,18.17
2023-04-17T14:48:38.384Z,14.05
2023-04-17T14:51:14.471Z,15.13
2023-04-17T14:53:40.978Z,15.55
2023-04-17T14:56:07.405Z,14.90
2023-04-17T14:58:33.951Z,14.70
2023-04-17T15:01:00.669Z,14.75
2023-04-17T15:03:27.419Z,14.05
2023-04-17T15:05:53.979Z,14.07
2023-04-17T15:08:20.375Z,14.30
2023-04-17T15:10:51.168Z,14.57
2023-04-17T15:13:18.277Z,15.38
2023-04-17T15:15:44.825Z,15.45
2023-04-17T15:18:11.276Z,14.95
2023-04-17T15:20:37.610Z,14.60
2023-04-17T15:23:04.202Z,14.60
2023-04-17T15:25:30.540Z,14.13
2023-04-17T15:27:56.821Z,16.35
2023-04-17T15:30:23.873Z,14.68
2023-04-17T15:32:50.908Z,15.20
2023-04-17T15:35:17.242Z,14.65
2023-04-17T15:37:43.624Z,13.63
2023-04-17T15:40:10.201Z,14.77
2023-04-17T15:42:36.638Z,14.48
2023-04-17T15:45:03.259Z,14.13
2023-04-17T15:47:29.921Z,14.20
2023-04-17T15:49:56.189Z,14.15
2023-04-17T15:52:22.945Z,15.57
2023-04-17T15:54:49.436Z,14.57
2023-04-17T15:57:15.855Z,15.52
2023-04-17T15:59:42.269Z,14.77
2023-04-17T16:02:08.666Z,14.57
2023-04-17T16:04:35.164Z,16.02
2023-04-17T16:07:01.747Z,15.50
2023-04-17T16:09:28.309Z,15.02
2023-04-17T16:11:55.357Z,15.82
2023-04-17T16:14:21.821Z,15.57
2023-04-17T16:16:48.376Z,15.55
2023-04-17T16:19:15.231Z,13.90
2023-04-17T16:21:41.595Z,14.45
2023-04-17T16:24:07.991Z,15.05
2023-04-17T16:26:34.503Z,15.20
2023-04-17T16:29:00.939Z,15.77
2023-04-17T16:31:27.343Z,14.00
2023-04-17T16:33:54.150Z,14.57
2023-04-17T16:36:21.268Z,14.18
2023-04-17T16:38:48.043Z,15.23
2023-04-17T16:41:14.538Z,14.18
2023-04-17T16:43:41.377Z,14.05
2023-04-17T16:46:18.374Z,14.23
2023-04-17T16:48:47.937Z,14.15
2023-04-17T16:51:14.383Z,13.98
2023-04-17T16:53:40.856Z,14.82
2023-04-17T16:56:07.593Z,13.60
2023-04-17T16:58:33.964Z,14.32
2023-04-17T17:01:00.665Z,14.48
2023-04-17T17:03:27.736Z,14.68
2023-04-17T17:05:54.298Z,14.70
2023-04-17T17:08:20.618Z,13.68
2023-04-17T17:10:47.271Z,14.40
2023-04-17T17:13:13.740Z,14.32
2023-04-17T17:15:40.152Z,13.95
2023-04-17T17:18:06.636Z,14.32
2023-04-17T17:20:33.227Z,13.63
2023-04-17T17:22:59.658Z,13.48
2023-04-17T17:25:26.028Z,13.38
2023-04-17T17:27:52.901Z,13.45
2023-04-17T17:30:19.227Z,13.38
2023-04-17T17:32:45.731Z,13.85
2023-04-17T17:35:12.504Z,13.77
2023-04-17T17:37:38.863Z,13.98
2023-04-17T17:40:05.190Z,14.07
2023-04-17T17:42:31.597Z,13.88
2023-04-17T17:44:57.901Z,13.45
2023-04-17T17:47:24.632Z,14.52
2023-04-17T17:49:51.396Z,13.45
2023-04-17T17:52:17.698Z,14.27
2023-04-17T17:54:44.221Z,14.60
2023-04-17T17:57:10.589Z,14.40
2023-04-17T17:59:37.278Z,15.27
2023-04-17T18:02:04.015Z,14.35
2023-04-17T18:04:30.822Z,14.75
2023-04-17T18:06:57.450Z,14.68
2023-04-17T18:09:23.778Z,14.55
2023-04-17T18:11:50.418Z,15.48
2023-04-17T18:14:16.852Z,14.82
2023-04-17T18:16:43.832Z,14.85
2023-04-17T18:19:10.455Z,14.82
2023-04-17T18:21:36.910Z,15.13
2023-04-17T18:24:03.269Z,15.80
2023-04-17T18:26:29.838Z,14.60
2023-04-17T18:28:56.207Z,15.00
2023-04-17T18:31:23.046Z,15.57
2023-04-17T18:33:49.853Z,15.38
2023-04-17T18:36:16.562Z,13.95
2023-04-17T18:38:43.854Z,15.27
2023-04-17T18:41:10.362Z,15.18
2023-04-17T18:43:37.030Z,15.30
2023-04-17T18:46:04.263Z,14.75
2023-04-17T18:48:30.595Z,14.32
2023-04-17T18:50:56.965Z,15.00
2023-04-17T18:53:23.392Z,14.98
2023-04-17T18:55:50.035Z,15.32
2023-04-17T18:58:16.638Z,15.00
2023-04-17T19:00:43.182Z,15.43
2023-04-17T19:03:09.629Z,14.85
2023-04-17T19:05:36.122Z,15.35
2023-04-17T19:08:02.598Z,15.23
2023-04-17T19:10:29.288Z,15.27
2023-04-17T19:12:55.691Z,15.35
2023-04-17T19:15:22.164Z,15.00
2023-04-17T19:17:48.914Z,14.38
2023-04-17T19:20:15.441Z,14.00
2023-04-17T19:22:42.096Z,14.00
2023-04-17T19:25:08.769Z,14.25
2023-04-17T19:27:35.341Z,13.90
2023-04-17T19:30:01.888Z,14.23
2023-04-17T19:32:30.490Z,14.68
2023-04-17T19:34:58.120Z,15.10
2023-04-17T19:37:24.963Z,14.55
2023-04-17T19:39:56.100Z,14.05
2023-04-17T19:42:23.372Z,14.00
2023-04-17T19:44:49.731Z,15.02
2023-04-17T19:47:16.101Z,13.75
2023-04-17T19:49:42.486Z,13.65
2023-04-17T19:52:09.148Z,14.27
2023-04-17T19:54:35.553Z,14.13
2023-04-17T19:57:01.994Z,14.40
2023-04-17T19:59:28.347Z,14.55
2023-04-17T20:01:54.812Z,13.75
2023-04-17T20:04:21.644Z,13.70
2023-04-17T20:06:48.065Z,14.52
2023-04-17T20:09:15.097Z,13.93
2023-04-17T20:11:41.543Z,13.88
2023-04-17T20:14:07.932Z,13.05
2023-04-17T20:16:34.294Z,14.32
2023-04-17T20:19:01.058Z,13.48
2023-04-17T20:21:27.415Z,13.85
2023-04-17T20:23:54.092Z,13.30
2023-04-17T20:26:20.716Z,13.02
2023-04-17T20:28:47.200Z,12.95
2023-04-17T20:31:13.715Z,13.60
2023-04-17T20:33:40.169Z,13.57
2023-04-17T20:36:06.684Z,14.00
2023-04-17T20:38:33.114Z,13.85
2023-04-17T20:40:59.541Z,12.60
2023-04-17T20:43:26.192Z,13.07
2023-04-17T20:45:52.689Z,12.88
2023-04-17T20:48:19.306Z,14.20
2023-04-17T20:50:46.153Z,12.18
2023-04-17T20:53:12.430Z,13.07
2023-04-17T20:55:38.974Z,13.50
2023-04-17T20:58:05.442Z,13.40
2023-04-17T21:00:31.810Z,13.50
2023-04-17T21:02:58.278Z,12.15
2023-04-17T21:05:25.401Z,13.23
2023-04-17T21:07:51.869Z,11.73
2023-04-17T21:10:18.200Z,12.32
2023-04-17T21:12:45.135Z,11.95
2023-04-17T21:15:11.532Z,12.20
2023-04-17T21:17:38.575Z,12.40
2023-04-17T21:20:05.499Z,13.55
2023-04-17T21:22:31.911Z,12.30
2023-04-17T21:24:59.008Z,12.75
2023-04-17T21:27:25.431Z,12.45
2023-04-17T21:29:52.128Z,11.93
2023-04-17T21:32:18.757Z,11.90
2023-04-17T21:34:45.617Z,12.15
2023-04-17T21:37:12.078Z,13.10
2023-04-17T21:39:38.929Z,12.20
2023-04-17T21:42:05.669Z,11.27
2023-04-17T21:44:32.095Z,12.55
2023-04-17T21:46:58.947Z,11.63
2023-04-17T21:49:25.376Z,12.10
2023-04-17T21:51:51.761Z,11.60
2023-04-17T21:54:18.103Z,11.35
2023-04-17T21:56:44.819Z,11.45
2023-04-17T21:59:11.742Z,12.18
2023-04-17T22:01:38.219Z,12.43
2023-04-17T22:04:04.806Z,11.60
2023-04-17T22:06:31.186Z,11.25
2023-04-17T22:08:58.031Z,11.40
2023-04-17T22:11:24.429Z,11.10
2023-04-17T22:13:50.927Z,12.30
2023-04-17T22:16:17.331Z,11.00
2023-04-17T22:18:43.733Z,11.48
2023-04-17T22:21:10.113Z,10.90
2023-04-17T22:23:36.518Z,11.27
2023-04-17T22:26:03.027Z,11.60
2023-04-17T22:28:29.434Z,11.13
2023-04-17T22:30:55.832Z,11.48
2023-04-17T22:33:22.159Z,10.35
2023-04-17T22:35:48.919Z,10.88
2023-04-17T22:38:15.325Z,11.52
2023-04-17T22:40:41.741Z,10.55
2023-04-17T22:43:08.246Z,10.90
2023-04-17T22:45:34.770Z,10.77
2023-04-17T22:48:01.207Z,10.32
2023-04-17T22:50:27.749Z,10.30
2023-04-17T22:52:54.115Z,11.15
2023-04-17T22:55:20.751Z,10.55
2023-04-17T22:57:47.256Z,11.18
2023-04-17T23:00:13.860Z,10.50
2023-04-17T23:02:40.592Z,10.23
2023-04-17T23:05:07.288Z,10.40
2023-04-17T23:07:33.680Z,10.50
2023-04-17T23:10:00.151Z,10.10
2023-04-17T23:12:27.030Z,10.15
2023-04-17T23:14:53.370Z,10.13
2023-04-17T23:17:19.961Z,10.38
2023-04-17T23:19:46.331Z,10.32
2023-04-17T23:22:12.753Z,10.80
2023-04-17T23:24:39.135Z,9.93
2023-04-17T23:27:05.654Z,9.70
2023-04-17T23:29:32.110Z,11.10
2023-04-17T23:31:58.554Z,10.32
2023-04-17T23:34:25.056Z,9.80
2023-04-17T23:36:51.410Z,9.88
2023-04-17T23:39:17.764Z,9.73
2023-04-17T23:41:44.505Z,10.02
2023-04-17T23:44:11.162Z,10.15
2023-04-17T23:46:37.975Z,10.65
2023-04-17T23:49:04.311Z,10.43
2023-04-17T23:51:30.795Z,10.35
2023-04-17T23:53:57.620Z,9.43
2023-04-17T23:56:24.169Z,9.73
2023-04-17T23:58:50.488Z,10.07
